Time;durP1;ratioP1;P1;durP2;ratioP2;P2;SDS_P1;SDS_P2;PMS_P1;PMS_P2;Temp;Humidity;BMP_temperature;BMP_pressure;BME280_temperature;BME280_humidity;BME280_pressure;Samples;Min_cycle;Max_cycle;Signal;HPM_P1;HPM_P2
2023/05/25 00:00:58;;;;;;;16.80;4.63;;;;;;;14.46;57.29;101337.06;5090268;28;20581;-59
2023/05/25 00:03:29;;;;;;;16.85;4.38;;;;;;;14.50;57.75;101335.34;5081558;28;20051;-58
2023/05/25 00:06:00;;;;;;;12.10;4.45;;;;;;;14.51;57.36;101335.34;5082217;28;20683;-59
2023/05/25 00:08:28;;;;;;;13.18;4.38;;;;;;;14.54;57.08;101334.47;5089145;28;20059;-59
2023/05/25 00:10:54;;;;;;;12.02;4.13;;;;;;;14.56;57.17;101337.09;5084696;28;20070;-59
2023/05/25 00:13:21;;;;;;;9.68;4.13;;;;;;;14.58;57.02;101327.53;5088131;28;20077;-59
2023/05/25 00:15:48;;;;;;;13.02;3.88;;;;;;;14.57;56.94;101324.06;5084576;28;20044;-60
2023/05/25 00:18:14;;;;;;;8.35;3.60;;;;;;;14.57;57.55;101334.50;5093368;28;20040;-59
2023/05/25 00:20:43;;;;;;;10.93;4.18;;;;;;;14.59;57.59;101330.13;5084335;28;20055;-59
2023/05/25 00:23:10;;;;;;;12.13;3.97;;;;;;;14.59;57.62;101331.91;5084849;28;20052;-59
2023/05/25 00:25:37;;;;;;;10.30;3.85;;;;;;;14.59;57.14;101337.97;5069890;28;20443;-59
2023/05/25 00:28:05;;;;;;;10.02;4.13;;;;;;;14.58;57.86;101338.84;5089468;28;20568;-58
2023/05/25 00:30:31;;;;;;;12.73;4.35;;;;;;;14.58;57.98;101341.44;5084845;28;20488;-59
2023/05/25 00:33:00;;;;;;;10.23;3.78;;;;;;;14.59;58.30;101340.56;5092640;28;20052;-58
2023/05/25 00:35:27;;;;;;;12.02;3.97;;;;;;;14.57;57.79;101339.72;5086213;28;20097;-59
2023/05/25 00:37:53;;;;;;;10.05;4.43;;;;;;;14.59;57.69;101348.38;5099041;28;20052;-58
2023/05/25 00:40:20;;;;;;;12.13;4.10;;;;;;;14.60;58.05;101338.84;5093909;28;20105;-58
2023/05/25 00:42:47;;;;;;;11.57;4.35;;;;;;;14.61;57.92;101341.44;5076640;28;20051;-59
2023/05/25 00:45:14;;;;;;;13.48;5.25;;;;;;;14.62;57.33;101343.19;5065238;28;20571;-59
2023/05/25 00:47:43;;;;;;;10.95;3.20;;;;;;;14.64;58.03;101343.19;5092836;28;20105;-59
2023/05/25 00:50:13;;;;;;;13.70;4.68;;;;;;;14.65;57.78;101347.53;5087180;28;20047;-59
2023/05/25 00:52:40;;;;;;;10.45;3.83;;;;;;;14.67;58.30;101355.34;5091324;28;20050;-58
2023/05/25 00:55:10;;;;;;;9.60;4.43;;;;;;;14.67;57.43;101356.22;5086599;28;20384;-58
2023/05/25 00:57:40;;;;;;;9.98;3.97;;;;;;;14.70;57.58;101360.56;5092101;28;20067;-57
2023/05/25 01:00:10;;;;;;;9.98;4.15;;;;;;;14.71;58.25;101362.31;5066916;28;20052;-56
2023/05/25 01:02:42;;;;;;;9.75;3.92;;;;;;;14.70;57.95;101361.47;5092345;28;20047;-58
2023/05/25 01:05:11;;;;;;;8.15;3.85;;;;;;;14.72;58.00;101364.03;5089675;28;20538;-57
2023/05/25 01:07:41;;;;;;;13.98;4.20;;;;;;;14.72;57.62;101359.72;5069435;28;20043;-58
2023/05/25 01:10:08;;;;;;;;;;;;;;;14.57;57.96;101363.19;5070149;28;20047;-58
2023/05/25 01:12:37;;;;;;;12.38;4.72;;;;;;;14.71;57.61;101364.91;5090030;28;19924;-58
2023/05/25 01:15:05;;;;;;;9.23;4.13;;;;;;;14.73;57.59;101371.03;5085758;28;20051;-58
2023/05/25 01:17:32;;;;;;;12.13;3.67;;;;;;;14.74;57.30;101367.53;5071522;28;20048;-56
2023/05/25 01:19:58;;;;;;;12.15;4.15;;;;;;;14.74;57.79;101377.97;5089232;28;20044;-58
2023/05/25 01:25:20;;;;;;;12.30;3.63;;;;;;;14.75;57.74;101369.25;5067412;27;20910;-57
2023/05/25 01:27:57;;;;;;;10.80;3.83;;;;;;;14.75;57.99;101369.25;5049123;28;20041;-58
2023/05/25 01:30:25;;;;;;;11.60;4.18;;;;;;;14.76;57.76;101365.81;5064259;28;20044;-58
2023/05/25 01:32:53;;;;;;;9.30;3.78;;;;;;;14.76;57.56;101371.88;5059218;28;20056;-58
2023/05/25 01:35:22;;;;;;;10.18;3.80;;;;;;;14.77;57.38;101372.78;5054653;28;20124;-56
2023/05/25 01:37:50;;;;;;;10.50;4.10;;;;;;;14.76;57.63;101364.06;5056602;28;20048;-58
2023/05/25 01:40:17;;;;;;;9.23;3.10;;;;;;;14.76;58.03;101376.25;5060187;28;20063;-58
2023/05/25 01:42:44;;;;;;;9.27;3.53;;;;;;;14.75;58.01;101370.16;5060489;28;20041;-56
2023/05/25 01:45:13;;;;;;;8.73;3.97;;;;;;;14.75;58.10;101370.16;5061521;28;20143;-57
2023/05/25 01:53:12;;;;;;;10.85;5.43;;;;;;;14.74;58.41;101370.16;4983292;28;20908;-58
2023/05/25 01:55:51;;;;;;;8.55;4.78;;;;;;;14.71;57.91;101372.75;4982034;28;20046;-58
2023/05/25 01:58:19;;;;;;;11.80;5.13;;;;;;;14.73;58.33;101369.25;4974031;28;20066;-57
2023/05/25 02:00:49;;;;;;;10.30;4.85;;;;;;;14.73;58.43;101366.66;4969828;28;20065;-58
2023/05/25 02:03:17;;;;;;;10.13;4.95;;;;;;;14.73;58.32;101376.22;4980930;28;20054;-57
2023/05/25 02:05:44;;;;;;;10.38;5.15;;;;;;;14.73;58.51;101378.84;4981036;28;20050;-58
2023/05/25 02:08:12;;;;;;;9.50;5.15;;;;;;;14.75;58.01;101369.25;4984478;28;20093;-57
2023/05/25 02:10:38;;;;;;;12.30;4.53;;;;;;;14.73;57.98;101371.03;4970923;28;20047;-58
2023/05/25 02:13:05;;;;;;;10.70;5.05;;;;;;;14.73;58.17;101371.88;4974502;28;20058;-58
2023/05/25 02:15:32;;;;;;;12.80;5.55;;;;;;;14.73;58.44;101371.88;4978889;28;20583;-56
2023/05/25 02:17:59;;;;;;;12.82;4.60;;;;;;;14.73;58.28;101371.03;4981140;28;20051;-58
2023/05/25 02:20:27;;;;;;;11.80;4.78;;;;;;;14.72;58.20;101379.69;4982945;28;20486;-58
2023/05/25 02:22:54;;;;;;;10.20;4.65;;;;;;;14.71;58.74;101368.41;4985469;28;20116;-58
2023/05/25 02:25:20;;;;;;;11.40;4.60;;;;;;;14.71;58.39;101375.34;4981360;28;20050;-58
2023/05/25 02:27:47;;;;;;;10.05;4.80;;;;;;;14.70;58.92;101371.88;4985299;28;20049;-58
2023/05/25 02:30:14;;;;;;;9.88;5.43;;;;;;;14.71;58.53;101372.75;4982310;28;20054;-58
2023/05/25 02:32:40;;;;;;;10.27;4.53;;;;;;;14.68;58.41;101372.72;4982276;28;20046;-58
2023/05/25 02:35:07;;;;;;;9.10;5.07;;;;;;;14.69;59.29;101374.50;4983376;28;20050;-58
2023/05/25 02:37:34;;;;;;;13.68;5.07;;;;;;;14.69;58.70;101371.88;4980619;28;20560;-58
2023/05/25 02:40:01;;;;;;;11.73;5.28;;;;;;;14.68;58.78;101371.00;4981476;28;20050;-58
2023/05/25 02:42:27;;;;;;;12.07;5.25;;;;;;;14.68;58.62;101377.94;4980166;28;20051;-57
2023/05/25 02:44:54;;;;;;;11.05;4.72;;;;;;;14.67;59.22;101371.00;4982669;28;20046;-58
2023/05/25 02:47:21;;;;;;;10.15;4.95;;;;;;;14.68;59.10;101364.91;4957684;28;20050;-58
2023/05/25 02:49:48;;;;;;;8.32;3.35;;;;;;;14.67;59.16;101371.88;4965980;28;20708;-58
2023/05/25 02:52:14;;;;;;;10.50;4.00;;;;;;;14.68;58.66;101367.50;4966285;28;20606;-58
2023/05/25 02:54:41;;;;;;;9.15;5.00;;;;;;;14.68;59.50;101370.13;4968802;28;20062;-57
2023/05/25 02:57:09;;;;;;;10.48;5.13;;;;;;;14.67;59.15;101369.28;4968455;28;20462;-58
2023/05/25 02:59:35;;;;;;;9.50;4.60;;;;;;;14.67;59.54;101365.78;4967881;28;20110;-57
2023/05/25 03:02:02;;;;;;;13.00;5.53;;;;;;;14.68;59.14;101367.50;4963452;28;20545;-58
2023/05/25 03:04:32;;;;;;;11.25;5.50;;;;;;;14.68;59.31;101367.50;4951423;28;20097;-58
2023/05/25 03:06:59;;;;;;;13.60;4.95;;;;;;;14.68;59.46;101371.00;4953971;28;20519;-58
2023/05/25 03:09:26;;;;;;;11.57;4.68;;;;;;;14.68;59.07;101372.72;4949905;28;20093;-58
2023/05/25 03:11:53;;;;;;;13.80;4.28;;;;;;;14.68;59.07;101375.34;4952575;28;20176;-58
2023/05/25 03:14:20;;;;;;;11.48;4.40;;;;;;;14.65;59.43;101382.31;4954353;28;20499;-56
2023/05/25 03:16:46;;;;;;;9.20;4.25;;;;;;;14.67;59.41;101386.66;4949877;28;20414;-57
2023/05/25 03:19:13;;;;;;;15.15;5.32;;;;;;;14.68;59.55;101384.03;4953516;28;20169;-58
2023/05/25 03:21:39;;;;;;;12.18;4.78;;;;;;;14.68;59.64;101383.16;4952620;28;20043;-58
2023/05/25 03:24:06;;;;;;;13.45;3.50;;;;;;;14.67;59.47;101391.84;4960680;28;20600;-58
2023/05/25 03:26:33;;;;;;;9.27;4.75;;;;;;;14.66;59.66;101396.22;4954066;28;20043;-56
2023/05/25 03:29:00;;;;;;;12.88;4.65;;;;;;;14.65;59.57;101395.34;4951549;28;20055;-57
2023/05/25 03:31:26;;;;;;;7.55;3.60;;;;;;;14.63;59.08;101399.66;4943501;28;20046;-56
2023/05/25 03:33:53;;;;;;;8.07;4.72;;;;;;;14.60;59.92;101398.81;4941422;28;20130;-58
2023/05/25 03:36:21;;;;;;;6.90;3.13;;;;;;;14.58;59.46;101404.00;4952124;28;20353;-58
2023/05/25 03:38:47;;;;;;;8.80;4.43;;;;;;;14.56;59.51;101405.72;4951635;28;20047;-58
2023/05/25 03:41:14;;;;;;;8.80;3.92;;;;;;;14.56;59.49;101397.91;4956303;28;20051;-57
2023/05/25 03:43:41;;;;;;;9.60;4.78;;;;;;;14.55;59.90;101398.78;4948798;28;20050;-57
2023/05/25 03:46:10;;;;;;;9.50;4.35;;;;;;;14.55;59.77;101397.94;4955165;28;20126;-58
2023/05/25 03:48:37;;;;;;;9.70;4.13;;;;;;;14.56;59.16;101403.13;4949996;28;20048;-58
2023/05/25 03:51:03;;;;;;;8.63;3.95;;;;;;;14.55;59.64;101403.16;4947224;28;20090;-57
2023/05/25 03:53:30;;;;;;;7.20;4.03;;;;;;;14.53;59.26;101397.94;4956815;28;20055;-57
2023/05/25 03:55:57;;;;;;;9.77;3.75;;;;;;;14.51;59.77;101408.34;4946487;28;20058;-58
2023/05/25 03:58:24;;;;;;;10.00;3.58;;;;;;;14.50;59.60;101400.53;4950580;28;20131;-56
2023/05/25 04:00:51;;;;;;;7.22;4.20;;;;;;;14.50;58.92;101403.13;4949454;28;20653;-58
2023/05/25 04:03:19;;;;;;;7.90;4.38;;;;;;;14.48;59.48;101397.91;4955838;28;20054;-58
2023/05/25 04:05:46;;;;;;;6.40;3.50;;;;;;;14.48;59.55;101392.69;4955354;28;21218;-58
2023/05/25 04:08:16;;;;;;;7.47;3.75;;;;;;;14.49;59.39;101404.00;4941953;28;20055;-58
2023/05/25 04:10:45;;;;;;;6.55;4.13;;;;;;;14.50;58.82;101395.31;4947526;28;20055;-58
2023/05/25 04:13:11;;;;;;;8.68;2.92;;;;;;;14.52;59.59;101402.25;4944065;28;20471;-59
2023/05/25 04:15:38;;;;;;;9.10;4.20;;;;;;;14.52;59.44;101397.06;4937283;28;20050;-58
2023/05/25 04:18:05;;;;;;;8.93;3.80;;;;;;;14.54;59.36;101397.06;4947610;28;20078;-58
2023/05/25 04:20:32;;;;;;;8.00;3.40;;;;;;;14.55;58.74;101405.75;4953769;28;20085;-57
2023/05/25 04:22:58;;;;;;;11.95;3.50;;;;;;;14.57;59.19;101401.41;4956422;28;20047;-58
2023/05/25 04:25:25;;;;;;;10.02;4.95;;;;;;;14.56;59.12;101404.88;4950092;28;20051;-56
2023/05/25 04:27:55;;;;;;;7.63;3.90;;;;;;;14.55;59.49;101409.22;4952239;28;20043;-58
2023/05/25 04:30:22;;;;;;;9.80;4.20;;;;;;;14.54;59.17;101407.47;4947103;28;20047;-58
2023/05/25 04:32:49;;;;;;;9.82;3.28;;;;;;;14.50;59.50;101405.75;4960712;28;20491;-55
2023/05/25 04:35:19;;;;;;;7.82;3.63;;;;;;;14.45;59.10;101416.13;4949214;28;20047;-58
2023/05/25 04:37:47;;;;;;;6.90;4.20;;;;;;;14.41;58.76;101417.00;4943201;28;20082;-58
2023/05/25 04:40:14;;;;;;;5.22;3.17;;;;;;;14.36;59.33;101422.19;4944428;28;20130;-58
2023/05/25 04:42:40;;;;;;;9.63;4.60;;;;;;;14.30;59.65;101430.00;4947055;28;20051;-57
2023/05/25 04:45:09;;;;;;;7.28;3.17;;;;;;;14.25;58.62;101432.56;4946832;28;20055;-58
2023/05/25 04:47:39;;;;;;;7.60;3.00;;;;;;;14.22;59.12;101436.91;4946014;28;20055;-57
2023/05/25 04:50:09;;;;;;;9.20;2.67;;;;;;;14.19;58.84;101452.53;4944388;28;20466;-55
2023/05/25 04:52:35;;;;;;;6.90;2.30;;;;;;;14.14;59.59;101444.69;4950619;28;20407;-58
2023/05/25 04:55:02;;;;;;;4.97;2.90;;;;;;;14.11;58.89;101448.16;4956703;28;20109;-57
2023/05/25 04:57:30;;;;;;;6.45;3.33;;;;;;;14.10;59.08;101454.25;4946006;28;20090;-58
2023/05/25 04:59:57;;;;;;;8.10;3.65;;;;;;;14.09;59.72;101447.25;4947537;28;20062;-57
2023/05/25 05:02:24;;;;;;;8.23;3.88;;;;;;;14.10;59.13;101453.34;4949404;28;20108;-57
2023/05/25 05:04:52;;;;;;;8.93;4.40;;;;;;;14.09;59.66;101457.69;4948520;28;20191;-56
2023/05/25 05:07:20;;;;;;;8.98;4.07;;;;;;;14.09;59.86;101451.63;4951259;28;20551;-55
2023/05/25 05:09:47;;;;;;;8.95;4.35;;;;;;;14.12;59.27;101462.91;4950073;28;20047;-57
2023/05/25 05:12:14;;;;;;;9.73;3.85;;;;;;;14.20;59.45;101459.47;4954800;28;20498;-55
2023/05/25 05:14:41;;;;;;;9.20;4.15;;;;;;;14.22;59.73;101468.19;4946614;28;20082;-57
2023/05/25 05:17:08;;;;;;;8.50;3.67;;;;;;;14.24;60.42;101466.44;4948195;28;20043;-57
2023/05/25 05:19:34;;;;;;;10.40;3.58;;;;;;;14.30;60.36;101470.81;4945059;28;20065;-56
2023/05/25 05:22:01;;;;;;;9.43;4.00;;;;;;;14.34;59.47;101463.03;4948578;28;20058;-57
2023/05/25 05:24:27;;;;;;;10.85;3.50;;;;;;;14.36;59.86;101469.09;4943162;28;20052;-56
2023/05/25 05:26:54;;;;;;;9.35;3.65;;;;;;;14.42;60.51;101470.88;4931845;29;20058;-56
2023/05/25 05:29:26;;;;;;;9.63;3.75;;;;;;;14.52;60.13;101466.56;4930442;29;20052;-55
2023/05/25 05:31:55;;;;;;;8.55;3.95;;;;;;;14.60;59.95;101475.31;4942882;28;20079;-55
2023/05/25 05:34:22;;;;;;;6.05;4.28;;;;;;;14.69;59.70;101484.00;4952469;28;20129;-55
2023/05/25 05:36:48;;;;;;;5.88;3.47;;;;;;;14.71;59.91;101484.88;4951239;28;20050;-56
2023/05/25 05:39:23;;;;;;;9.38;4.72;;;;;;;14.80;60.11;101484.06;4946173;28;20059;-57
2023/05/25 05:41:50;;;;;;;10.43;3.92;;;;;;;14.87;59.75;101483.22;4949636;28;20074;-54
2023/05/25 05:44:17;;;;;;;10.52;3.78;;;;;;;14.93;59.95;101482.38;4949934;28;20104;-53
2023/05/25 05:46:44;;;;;;;11.13;2.85;;;;;;;15.02;60.09;101477.16;4948923;28;20568;-57
2023/05/25 05:49:10;;;;;;;11.50;4.65;;;;;;;15.10;60.08;101480.63;4942064;28;20051;-54
2023/05/25 05:51:37;;;;;;;10.02;4.72;;;;;;;15.22;59.89;101484.13;4947766;28;20051;-53
2023/05/25 05:54:04;;;;;;;7.70;4.15;;;;;;;15.27;59.61;101491.09;4951501;28;20051;-56
2023/05/25 05:56:30;;;;;;;9.70;3.58;;;;;;;15.39;59.96;101492.88;4949502;28;20397;-55
2023/05/25 05:58:57;;;;;;;9.43;4.57;;;;;;;15.52;59.24;101492.84;4944421;28;20066;-54
2023/05/25 06:01:24;;;;;;;9.93;4.78;;;;;;;15.58;59.18;101497.22;4950659;28;20047;-55
2023/05/25 06:03:53;;;;;;;9.50;4.65;;;;;;;15.61;59.93;101492.88;4946045;28;20043;-55
2023/05/25 06:06:20;;;;;;;10.23;4.72;;;;;;;15.76;59.12;101496.31;4949998;28;20047;-53
2023/05/25 06:08:47;;;;;;;10.10;5.05;;;;;;;15.89;59.76;101495.44;4947691;28;20051;-56
2023/05/25 06:11:13;;;;;;;9.70;4.60;;;;;;;16.04;59.53;101501.53;4947157;28;20055;-55
2023/05/25 06:13:40;;;;;;;11.18;4.18;;;;;;;16.11;59.48;101492.78;4950454;28;20072;-54
2023/05/25 06:16:07;;;;;;;10.80;5.35;;;;;;;16.14;59.22;101487.56;4948615;28;20058;-54
2023/05/25 06:18:33;;;;;;;8.88;5.13;;;;;;;16.19;58.86;101496.25;4945112;28;20128;-53
2023/05/25 06:21:00;;;;;;;9.95;4.65;;;;;;;16.35;58.63;101501.44;4947283;28;20515;-55
2023/05/25 06:23:27;;;;;;;10.32;5.00;;;;;;;16.43;58.14;101510.16;4945352;28;20047;-53
2023/05/25 06:25:54;;;;;;;12.00;3.83;;;;;;;16.52;58.31;101503.97;4948352;28;20418;-57
2023/05/25 06:28:20;;;;;;;12.52;5.32;;;;;;;16.71;58.02;101514.38;4941067;28;20049;-52
2023/05/25 06:30:47;;;;;;;11.93;4.10;;;;;;;16.84;57.87;101517.78;4943527;28;20604;-55
2023/05/25 06:33:14;;;;;;;11.60;4.75;;;;;;;16.99;57.82;101510.75;4943880;28;20039;-53
2023/05/25 06:35:40;;;;;;;7.65;3.72;;;;;;;17.13;57.62;101522.03;4946664;28;20073;-53
2023/05/25 06:38:08;;;;;;;9.73;4.38;;;;;;;17.27;56.89;101514.09;4941283;28;20055;-55
2023/05/25 06:40:34;;;;;;;7.57;4.40;;;;;;;17.51;56.99;101519.13;4949422;28;20051;-54
2023/05/25 06:43:01;;;;;;;9.55;4.75;;;;;;;17.72;56.46;101513.72;4949418;28;20486;-53
2023/05/25 06:45:27;;;;;;;9.38;5.10;;;;;;;17.96;56.50;101514.34;4948592;28;20055;-56
2023/05/25 06:47:54;;;;;;;11.77;5.10;;;;;;;18.14;56.10;101522.94;4940595;28;20051;-55
2023/05/25 06:50:21;;;;;;;10.75;4.38;;;;;;;18.37;55.45;101521.78;4948634;28;20109;-55
2023/05/25 06:52:47;;;;;;;12.52;4.25;;;;;;;18.64;54.96;101530.22;4943445;28;20106;-56
2023/05/25 06:55:14;;;;;;;9.68;4.32;;;;;;;18.81;53.44;101534.41;4940881;28;20043;-52
2023/05/25 06:57:42;;;;;;;8.38;4.20;;;;;;;18.93;53.82;101534.22;4943439;28;20174;-54
2023/05/25 07:00:11;;;;;;;9.15;4.03;;;;;;;19.14;53.52;101537.44;4946355;28;20051;-57
2023/05/25 07:02:38;;;;;;;9.20;3.95;;;;;;;19.40;53.92;101528.31;4943951;28;20553;-57
2023/05/25 07:05:05;;;;;;;10.38;3.83;;;;;;;19.59;52.36;101528.00;4945258;28;20109;-54
2023/05/25 07:07:32;;;;;;;14.63;4.95;;;;;;;19.79;52.22;101535.53;4944950;28;20505;-54
2023/05/25 07:10:00;;;;;;;8.02;4.47;;;;;;;19.97;51.15;101538.72;4942811;28;20052;-53
2023/05/25 07:12:26;;;;;;;9.68;4.07;;;;;;;20.10;51.19;101539.41;4943254;28;20451;-55
2023/05/25 07:14:53;;;;;;;8.48;4.25;;;;;;;20.23;50.98;101537.41;4947567;28;20078;-55
2023/05/25 07:17:20;;;;;;;11.55;4.80;;;;;;;20.44;50.63;101541.38;4944800;28;20043;-56
2023/05/25 07:19:48;;;;;;;6.93;4.65;;;;;;;20.68;49.97;101552.28;4945139;28;20054;-54
2023/05/25 07:22:17;;;;;;;8.23;3.70;;;;;;;20.89;49.68;101550.13;4951775;28;20047;-55
2023/05/25 07:24:45;;;;;;;11.68;5.43;;;;;;;21.08;49.32;101549.72;4940578;28;20043;-56
2023/05/25 07:27:13;;;;;;;11.00;4.18;;;;;;;21.16;48.35;101555.66;4945455;28;20051;-53
2023/05/25 07:29:40;;;;;;;9.10;4.25;;;;;;;21.25;47.95;101550.19;4947041;28;20047;-56
2023/05/25 07:32:06;;;;;;;6.80;4.07;;;;;;;21.44;47.89;101549.72;4942991;28;20086;-53
2023/05/25 07:34:33;;;;;;;8.65;4.05;;;;;;;21.61;46.65;101548.47;4942999;28;20055;-54
2023/05/25 07:37:00;;;;;;;10.57;5.28;;;;;;;21.67;46.57;101551.81;4954717;28;20055;-53
2023/05/25 07:39:27;;;;;;;7.72;4.30;;;;;;;21.74;46.32;101552.53;4947217;28;20059;-52
2023/05/25 07:41:57;;;;;;;8.57;4.53;;;;;;;21.87;46.10;101561.00;4941430;28;20055;-51
2023/05/25 07:44:24;;;;;;;8.80;3.45;;;;;;;21.96;46.05;101557.25;4938480;28;20055;-54
2023/05/25 07:46:54;;;;;;;8.95;3.63;;;;;;;22.16;45.59;101559.34;4944164;28;20058;-56
2023/05/25 07:49:20;;;;;;;7.72;4.18;;;;;;;22.32;45.31;101567.69;4944470;28;20043;-54
2023/05/25 07:51:47;;;;;;;10.02;3.45;;;;;;;22.54;45.44;101561.81;4955484;28;20043;-56
2023/05/25 07:54:14;;;;;;;9.70;3.95;;;;;;;22.73;44.09;101566.59;4948396;28;20047;-54
2023/05/25 07:56:41;;;;;;;6.65;3.53;;;;;;;22.77;43.78;101562.94;4946705;28;20051;-55
2023/05/25 07:59:10;;;;;;;8.38;3.75;;;;;;;22.81;44.16;101561.94;4954266;28;20047;-57
2023/05/25 08:01:38;;;;;;;6.95;3.78;;;;;;;22.95;43.30;101566.81;4952646;28;20050;-56
2023/05/25 08:04:04;;;;;;;6.90;3.58;;;;;;;23.03;43.82;101558.63;4952243;28;20051;-56
2023/05/25 08:06:31;;;;;;;5.57;3.63;;;;;;;23.07;43.33;101560.25;4951770;28;20047;-58
2023/05/25 08:08:58;;;;;;;8.82;3.80;;;;;;;23.13;42.94;101567.13;4942710;28;20062;-53
2023/05/25 08:11:25;;;;;;;7.47;3.38;;;;;;;23.24;43.22;101566.81;4949073;28;20058;-56
2023/05/25 08:13:54;;;;;;;7.45;3.50;;;;;;;23.30;42.60;101566.59;4952664;28;20051;-55
2023/05/25 08:16:21;;;;;;;6.90;4.05;;;;;;;23.37;42.96;101572.56;4944721;28;20058;-56
2023/05/25 08:18:48;;;;;;;8.90;3.22;;;;;;;23.33;42.25;101577.06;4951523;28;20478;-53
2023/05/25 08:21:15;;;;;;;9.52;3.78;;;;;;;23.24;42.62;101574.72;4946450;28;20057;-57
2023/05/25 08:23:41;;;;;;;7.65;2.97;;;;;;;23.41;42.83;101581.28;4951147;28;20122;-56
2023/05/25 08:26:10;;;;;;;8.73;4.40;;;;;;;23.61;43.00;101578.84;4944148;28;20047;-56
2023/05/25 08:28:57;;;;;;;;;;;;;;;23.76;42.93;101584.53;4951320;28;20550;-57
2023/05/25 08:31:23;;;;;;;6.75;2.70;;;;;;;23.79;42.00;101584.44;4986212;28;20551;-57
2023/05/25 08:33:50;;;;;;;9.43;4.38;;;;;;;23.93;42.42;101588.38;4949294;28;20050;-56
2023/05/25 08:36:17;;;;;;;9.05;3.70;;;;;;;23.75;41.63;101583.66;4950021;28;20058;-56
2023/05/25 08:38:43;;;;;;;8.38;4.32;;;;;;;23.47;41.74;101578.44;4949800;28;20062;-54
2023/05/25 08:41:11;;;;;;;7.68;4.10;;;;;;;23.34;41.62;101584.06;4951915;28;20093;-56
2023/05/25 08:43:40;;;;;;;7.35;3.92;;;;;;;23.22;42.10;101585.34;4948084;28;20157;-56
2023/05/25 08:46:08;;;;;;;8.70;4.40;;;;;;;23.17;42.11;101586.41;4947946;28;20054;-57
2023/05/25 08:48:37;;;;;;;8.13;4.30;;;;;;;23.24;42.64;101591.44;4948338;28;20154;-54
2023/05/25 08:51:12;;;;;;;10.05;3.38;;;;;;;23.29;41.34;101588.66;4953177;28;20511;-53
2023/05/25 08:53:40;;;;;;;7.18;3.80;;;;;;;23.16;41.95;101585.53;4950864;28;20043;-56
2023/05/25 08:56:17;;;;;;;6.40;3.47;;;;;;;23.07;42.73;101591.97;4949736;28;20046;-57
2023/05/25 08:58:52;;;;;;;7.28;3.70;;;;;;;23.18;42.73;101588.13;4984817;28;20519;-58
2023/05/25 09:01:25;;;;;;;9.27;3.50;;;;;;;23.24;42.24;101598.53;4938037;28;20204;-57
2023/05/25 09:03:53;;;;;;;8.93;3.85;;;;;;;23.50;42.11;101594.19;4940064;28;20122;-55
2023/05/25 09:06:22;;;;;;;9.20;3.63;;;;;;;23.64;42.38;101595.53;4950818;28;20530;-58
2023/05/25 09:08:49;;;;;;;12.70;4.00;;;;;;;23.66;41.72;101605.13;4949299;28;20047;-56
2023/05/25 09:11:17;;;;;;;9.20;4.22;;;;;;;23.78;41.98;101597.69;4948601;28;20051;-56
2023/05/25 09:14:02;;;;;;;8.40;3.83;;;;;;;23.85;40.99;101604.53;4945585;28;20058;-55
2023/05/25 09:16:31;;;;;;;9.02;3.83;;;;;;;23.95;40.47;101602.41;4948952;28;20051;-56
2023/05/25 09:18:58;;;;;;;11.90;4.90;;;;;;;24.04;41.21;101598.59;4954922;28;20055;-53
2023/05/25 09:21:25;;;;;;;8.73;3.55;;;;;;;24.20;40.60;101599.81;4949494;28;20054;-55
2023/05/25 09:23:52;;;;;;;8.65;3.28;;;;;;;24.41;40.58;101597.28;4948048;28;20053;-58
2023/05/25 09:26:18;;;;;;;8.18;3.58;;;;;;;24.60;40.25;101609.84;4953313;28;20507;-57
2023/05/25 09:28:46;;;;;;;9.23;3.60;;;;;;;24.65;39.63;101616.72;4933967;28;20055;-57
2023/05/25 09:31:15;;;;;;;9.85;3.67;;;;;;;24.76;40.11;101612.81;4949818;28;20095;-57
2023/05/25 09:33:42;;;;;;;8.88;3.63;;;;;;;25.03;41.18;101610.91;4943830;28;20063;-58
2023/05/25 09:36:11;;;;;;;12.00;4.97;;;;;;;25.16;39.30;101616.59;4945491;28;20051;-53
2023/05/25 09:38:39;;;;;;;10.57;4.20;;;;;;;24.85;39.02;101617.78;4946288;28;20070;-55
2023/05/25 09:41:06;;;;;;;8.73;3.63;;;;;;;24.81;39.37;101615.25;4958494;28;20051;-54
2023/05/25 09:43:34;;;;;;;10.70;3.95;;;;;;;24.75;39.19;101617.22;4949900;28;20131;-57
2023/05/25 09:46:13;;;;;;;7.22;3.40;;;;;;;24.74;39.05;101619.94;4941164;28;20047;-55
2023/05/25 09:48:40;;;;;;;11.40;3.50;;;;;;;24.85;39.97;101620.41;4949413;28;20047;-57
2023/05/25 09:51:07;;;;;;;7.15;3.63;;;;;;;24.99;39.50;101616.41;4949191;28;20042;-57
2023/05/25 09:53:34;;;;;;;12.40;4.47;;;;;;;25.08;39.34;101621.31;4958381;28;20055;-58
2023/05/25 09:56:04;;;;;;;8.48;3.25;;;;;;;25.11;38.93;101623.88;4955251;28;20047;-57
2023/05/25 09:58:31;;;;;;;8.00;3.88;;;;;;;25.11;38.53;101629.16;4952680;28;20940;-55
2023/05/25 10:00:58;;;;;;;7.75;4.43;;;;;;;25.09;38.91;101623.03;4946595;28;20055;-56
2023/05/25 10:03:25;;;;;;;8.13;3.88;;;;;;;25.15;38.84;101630.78;4953704;28;20055;-56
2023/05/25 10:05:53;;;;;;;12.05;4.93;;;;;;;25.02;38.43;101624.19;4951802;28;20058;-54
2023/05/25 10:08:22;;;;;;;9.57;3.90;;;;;;;24.87;39.36;101625.66;4920679;28;20051;-55
2023/05/25 10:10:49;;;;;;;7.72;3.80;;;;;;;24.76;38.68;101628.69;4936077;28;20083;-57
2023/05/25 10:13:21;;;;;;;10.80;4.45;;;;;;;24.46;39.33;101620.97;4975168;28;20075;-56
2023/05/25 10:15:52;;;;;;;10.13;3.47;;;;;;;24.41;39.77;101623.78;4952289;28;20430;-55
2023/05/25 10:18:25;;;;;;;10.23;3.92;;;;;;;24.47;39.75;101622.69;4953505;28;20071;-58
2023/05/25 10:21:03;;;;;;;9.18;4.18;;;;;;;24.31;39.51;101627.69;4947952;28;20098;-57
2023/05/25 10:23:40;;;;;;;6.03;3.58;;;;;;;24.43;40.15;101627.25;4942163;28;20061;-55
2023/05/25 10:26:08;;;;;;;11.82;3.67;;;;;;;24.59;39.60;101624.88;4958123;28;20086;-58
2023/05/25 10:28:38;;;;;;;8.05;3.83;;;;;;;24.77;40.20;101635.72;4949019;28;20830;-56
2023/05/25 10:31:05;;;;;;;7.47;3.70;;;;;;;25.01;39.87;101633.09;4949943;28;20055;-54
2023/05/25 10:33:32;;;;;;;7.88;4.05;;;;;;;25.12;39.89;101630.88;4950752;28;20051;-56
2023/05/25 10:36:02;;;;;;;5.43;2.83;;;;;;;25.16;39.40;101632.47;4947610;28;20381;-56
2023/05/25 10:38:35;;;;;;;9.23;4.25;;;;;;;25.09;38.84;101638.94;4946198;28;20150;-54
2023/05/25 10:41:04;;;;;;;8.48;4.03;;;;;;;24.95;38.95;101644.78;4958557;28;20063;-58
2023/05/25 10:43:32;;;;;;;7.68;3.90;;;;;;;25.07;39.46;101647.88;4950440;28;20063;-55
2023/05/25 10:45:59;;;;;;;8.70;3.92;;;;;;;25.29;39.42;101642.59;4954837;28;20054;-57
2023/05/25 10:48:47;;;;;;;7.43;4.07;;;;;;;25.44;39.04;101656.19;4947466;28;20481;-57
2023/05/25 10:51:14;;;;;;;7.90;3.45;;;;;;;25.71;39.42;101648.06;4957585;28;20488;-58
2023/05/25 10:53:46;;;;;;;8.00;4.13;;;;;;;25.83;38.41;101649.34;4944170;28;20062;-55
2023/05/25 10:56:13;;;;;;;7.65;4.15;;;;;;;25.83;38.26;101642.22;4946925;28;20676;-53
2023/05/25 10:58:43;;;;;;;6.88;3.83;;;;;;;25.49;37.56;101659.50;4980111;28;20060;-54
2023/05/25 11:01:12;;;;;;;12.88;4.07;;;;;;;25.29;38.77;101648.78;4952759;28;20042;-56
2023/05/25 11:06:21;;;;;;;10.23;4.80;;;;;;;25.62;37.20;101651.94;5044949;28;20385;-54
2023/05/25 11:17:13;;;;;;;9.18;4.05;;;;;;;25.26;37.80;101658.66;5030324;27;20406;-58
2023/05/25 11:24:59;;;;;;;8.73;4.60;;;;;;;25.59;37.10;101654.72;5043513;28;20425;-58
2023/05/25 11:27:27;;;;;;;9.65;4.45;;;;;;;25.31;38.41;101646.06;5019629;28;20042;-57
2023/05/25 11:29:57;;;;;;;6.30;3.97;;;;;;;25.37;38.39;101637.84;5023933;28;20081;-56
2023/05/25 11:32:24;;;;;;;;;;;;;;;25.05;37.98;101634.69;5018671;28;20054;-54
2023/05/25 11:34:53;;;;;;;8.82;4.32;;;;;;;24.93;38.36;101643.13;5017232;28;19929;-58
2023/05/25 11:37:23;;;;;;;8.32;4.05;;;;;;;24.65;38.90;101631.72;5014652;28;20049;-56
2023/05/25 11:39:51;;;;;;;7.80;3.20;;;;;;;24.44;39.33;101633.38;5020305;28;20535;-58
2023/05/25 11:42:20;;;;;;;11.57;5.18;;;;;;;24.34;39.27;101639.03;5019787;28;20045;-58
2023/05/25 11:44:47;;;;;;;9.77;4.40;;;;;;;24.09;39.52;101629.28;5016830;28;20085;-60
2023/05/25 11:47:18;;;;;;;6.63;4.60;;;;;;;24.02;40.25;101622.47;5015427;28;20049;-54
2023/05/25 11:49:46;;;;;;;7.68;3.95;;;;;;;23.99;40.09;101630.50;5019300;28;20083;-56